createdAt,value
2023-05-19T00:00:37.423Z,102692.56
2023-05-19T00:03:10.184Z,102693.38
2023-05-19T00:05:46.331Z,102688.22
2023-05-19T00:08:18.661Z,102682.31
2023-05-19T00:10:48.252Z,102689.09
2023-05-19T00:13:19.731Z,102683.94
2023-05-19T00:15:48.990Z,102689.19
2023-05-19T00:18:18.139Z,102601.59
2023-05-19T00:20:46.926Z,102684.09
2023-05-19T00:23:17.192Z,102681.53
2023-05-19T00:25:46.017Z,102678.03
2023-05-19T00:28:14.876Z,102676.41
2023-05-19T00:30:43.740Z,102675.53
2023-05-19T00:33:12.656Z,102680.78
2023-05-19T00:35:41.706Z,102677.31
2023-05-19T00:38:10.464Z,102683.44
2023-05-19T00:40:41.064Z,102689.66
2023-05-19T00:43:10.742Z,102690.47
2023-05-19T00:45:39.683Z,102677.53
2023-05-19T00:48:10.587Z,102688.78
2023-05-19T00:50:39.673Z,102681.91
2023-05-19T00:53:09.107Z,102681.00
2023-05-19T00:55:41.567Z,102686.34
2023-05-19T00:58:12.847Z,102664.78
2023-05-19T01:00:44.417Z,102685.50
2023-05-19T01:03:13.583Z,102572.84
2023-05-19T01:05:45.062Z,102676.03
2023-05-19T01:08:13.799Z,102671.72
2023-05-19T01:10:44.315Z,102670.94
2023-05-19T01:13:13.622Z,102670.09
2023-05-19T01:15:58.978Z,102673.56
2023-05-19T01:18:35.946Z,102672.72
2023-05-19T01:21:27.646Z,102675.31
2023-05-19T01:24:13.470Z,102675.41
2023-05-19T01:27:05.824Z,102674.56
2023-05-19T01:29:43.748Z,102663.34
2023-05-19T01:32:17.266Z,102661.63
2023-05-19T01:34:47.561Z,102664.16
2023-05-19T01:37:18.732Z,102652.19
2023-05-19T01:39:49.778Z,102649.53
2023-05-19T01:42:19.172Z,102656.50
2023-05-19T01:44:48.680Z,102653.84
2023-05-19T01:47:19.642Z,102660.00
2023-05-19T01:49:48.469Z,102654.03
2023-05-19T01:52:17.299Z,102659.25
2023-05-19T01:54:46.206Z,102661.88
2023-05-19T01:57:22.525Z,102659.34
2023-05-19T02:00:07.840Z,102659.34
2023-05-19T02:02:57.930Z,102650.72
2023-05-19T02:05:36.044Z,102651.63
2023-05-19T02:08:25.515Z,102655.09
2023-05-19T02:11:04.915Z,102649.97
2023-05-19T02:13:38.547Z,102649.13
2023-05-19T02:21:02.580Z,102651.78
2023-05-19T02:23:31.507Z,102644.91
2023-05-19T02:26:00.458Z,102626.81
2023-05-19T02:28:32.789Z,102640.59
2023-05-19T02:31:05.287Z,102644.03
2023-05-19T02:33:36.466Z,102637.19
2023-05-19T02:36:07.565Z,102639.78
2023-05-19T02:38:36.401Z,102640.69
2023-05-19T02:41:05.161Z,102638.16
2023-05-19T02:43:34.050Z,102633.03
2023-05-19T02:46:02.902Z,102626.09
2023-05-19T02:48:31.915Z,102631.25
2023-05-19T02:51:00.714Z,102633.84
2023-05-19T02:53:31.792Z,102619.28
2023-05-19T02:56:02.623Z,102628.75
2023-05-19T02:58:33.878Z,102634.84
2023-05-19T03:01:02.725Z,102634.84
2023-05-19T03:03:31.860Z,102620.22
2023-05-19T03:06:02.018Z,102627.13
2023-05-19T03:08:32.141Z,102621.94
2023-05-19T03:11:01.233Z,102620.25
2023-05-19T03:13:32.101Z,102624.59
2023-05-19T03:16:03.602Z,102620.28
2023-05-19T03:18:32.445Z,102620.28
2023-05-19T03:21:01.459Z,102601.31
2023-05-19T03:23:34.122Z,102617.72
2023-05-19T03:26:03.168Z,102621.22
2023-05-19T03:28:32.350Z,102616.03
2023-05-19T03:31:01.218Z,102627.31
2023-05-19T03:33:35.752Z,102608.31
2023-05-19T03:36:05.367Z,102606.59
2023-05-19T03:38:39.565Z,102606.59
2023-05-19T03:41:08.482Z,102603.13
2023-05-19T03:43:37.344Z,102606.59
2023-05-19T03:46:08.293Z,102597.13
2023-05-19T03:48:49.287Z,102603.09
2023-05-19T03:51:20.785Z,102605.69
2023-05-19T03:53:53.745Z,102604.78
2023-05-19T03:56:27.852Z,102609.16
2023-05-19T03:58:56.836Z,102605.78
2023-05-19T04:01:25.851Z,102604.94
2023-05-19T04:03:54.854Z,102612.66
2023-05-19T04:06:25.473Z,102603.25
2023-05-19T04:08:58.066Z,102623.88
2023-05-19T04:11:27.189Z,102625.63
2023-05-19T04:13:56.170Z,102620.38
2023-05-19T04:16:25.310Z,102625.56
2023-05-19T04:18:54.311Z,102613.44
2023-05-19T04:21:25.937Z,102619.59
2023-05-19T04:24:00.032Z,102625.59
2023-05-19T04:26:31.229Z,102622.97
2023-05-19T04:29:04.516Z,102621.25
2023-05-19T04:31:34.493Z,102622.91
2023-05-19T04:34:05.215Z,102623.75
2023-05-19T04:36:34.170Z,102630.59
2023-05-19T04:39:07.977Z,102627.97
2023-05-19T04:41:40.308Z,102623.56
2023-05-19T04:44:13.580Z,102618.19
2023-05-19T04:46:45.333Z,102624.94
2023-05-19T04:49:14.741Z,102628.31
2023-05-19T04:51:46.098Z,102605.75
2023-05-19T04:54:16.307Z,102630.78
2023-05-19T04:56:46.305Z,102626.19
2023-05-19T04:59:15.388Z,102632.88
2023-05-19T05:01:46.550Z,102624.00
2023-05-19T05:04:17.405Z,102629.78
2023-05-19T05:06:48.036Z,102636.53
2023-05-19T05:09:20.037Z,102639.06
2023-05-19T05:11:49.347Z,102641.44
2023-05-19T05:14:18.746Z,102644.63
2023-05-19T05:16:49.706Z,102640.91
2023-05-19T05:19:24.190Z,102645.00
2023-05-19T05:21:54.027Z,102665.56
2023-05-19T05:24:24.986Z,102638.47
2023-05-19T05:26:59.063Z,102641.72
2023-05-19T05:29:28.217Z,102638.25
2023-05-19T05:31:57.902Z,102639.50
2023-05-19T05:34:27.208Z,102645.22
2023-05-19T05:36:56.397Z,102619.09
2023-05-19T05:39:29.236Z,102635.63
2023-05-19T05:42:01.426Z,102643.78
2023-05-19T05:44:30.559Z,102620.56
2023-05-19T05:47:02.830Z,102640.31
2023-05-19T05:49:32.171Z,102641.72
2023-05-19T05:52:06.104Z,102638.13
2023-05-19T05:54:44.087Z,102643.75
2023-05-19T05:57:17.051Z,102632.56
2023-05-19T05:59:48.813Z,102630.72
2023-05-19T06:02:19.993Z,102628.47
2023-05-19T06:04:49.121Z,102610.66
2023-05-19T06:07:17.995Z,102625.22
2023-05-19T06:09:48.585Z,102615.31
2023-05-19T06:12:18.094Z,102626.16
2023-05-19T06:14:50.217Z,102623.69
2023-05-19T06:17:39.039Z,102612.50
2023-05-19T06:20:10.241Z,102621.16
2023-05-19T06:22:41.690Z,102618.91
2023-05-19T06:25:13.934Z,102627.38
2023-05-19T06:27:43.268Z,102626.06
2023-05-19T06:30:12.822Z,102626.41
2023-05-19T06:32:57.612Z,102629.75
2023-05-19T06:35:29.937Z,102619.81
2023-05-19T06:38:01.106Z,102618.31
2023-05-19T06:40:31.645Z,102623.16
2023-05-19T06:43:02.952Z,102624.34
2023-05-19T06:45:57.229Z,102619.91
2023-05-19T06:48:27.742Z,102622.69
2023-05-19T06:50:57.198Z,102616.00
2023-05-19T06:53:26.922Z,102611.28
2023-05-19T06:56:00.150Z,102618.53
2023-05-19T06:58:33.780Z,102612.38
2023-05-19T07:01:07.780Z,102632.28
2023-05-19T07:03:43.988Z,102625.72
2023-05-19T07:06:14.253Z,102629.91
2023-05-19T07:08:43.572Z,102622.56
2023-05-19T07:11:18.399Z,102525.16
2023-05-19T07:13:47.261Z,102623.53
2023-05-19T07:16:21.909Z,102622.94
2023-05-19T07:18:53.082Z,102615.63
2023-05-19T07:21:22.388Z,102615.00
2023-05-19T07:23:52.564Z,102616.41
2023-05-19T07:26:25.251Z,102622.84
2023-05-19T07:28:54.438Z,102618.78
2023-05-19T07:31:23.384Z,102612.31
2023-05-19T07:33:54.528Z,102617.69
2023-05-19T07:36:23.800Z,102614.31
2023-05-19T07:38:52.754Z,102602.63
2023-05-19T07:41:21.632Z,102607.09
2023-05-19T07:43:51.821Z,102602.09
2023-05-19T07:46:22.205Z,102533.81
2023-05-19T07:48:51.157Z,102604.88
2023-05-19T07:51:19.995Z,102604.00
2023-05-19T07:53:48.892Z,102598.34
2023-05-19T07:56:17.826Z,102595.03
2023-05-19T07:58:46.907Z,102600.59
2023-05-19T08:01:17.145Z,102594.84
2023-05-19T08:03:48.340Z,102591.06
2023-05-19T08:06:17.309Z,102595.69
2023-05-19T08:08:46.491Z,102587.59
2023-05-19T08:11:15.445Z,102582.16
2023-05-19T08:13:45.344Z,102586.97
2023-05-19T08:16:14.288Z,102589.00
2023-05-19T08:18:44.759Z,102587.50
2023-05-19T08:21:13.675Z,102580.34
2023-05-19T08:23:42.532Z,102589.38
2023-05-19T08:26:11.364Z,102578.94
2023-05-19T08:28:40.223Z,102506.41
2023-05-19T08:31:09.306Z,102555.34
2023-05-19T08:33:38.330Z,102568.22
2023-05-19T08:36:13.195Z,102573.81
2023-05-19T08:38:42.068Z,102564.38
2023-05-19T08:41:11.324Z,102567.94
2023-05-19T08:43:42.410Z,102560.03
2023-05-19T08:46:17.009Z,102557.97
2023-05-19T08:48:47.357Z,102553.28
2023-05-19T08:51:25.769Z,102545.94
2023-05-19T08:54:00.535Z,102556.16
2023-05-19T08:56:29.501Z,102551.41
2023-05-19T08:59:00.505Z,102548.81
2023-05-19T09:01:32.599Z,102543.59
2023-05-19T09:04:04.616Z,102551.75
2023-05-19T09:06:35.216Z,102550.03
2023-05-19T09:09:05.325Z,102551.53
2023-05-19T09:11:35.808Z,102552.25
2023-05-19T09:14:04.768Z,102552.06
2023-05-19T09:16:36.381Z,102558.09
2023-05-19T09:19:08.853Z,102522.06
2023-05-19T09:21:39.289Z,102554.53
2023-05-19T09:24:11.386Z,102546.09
2023-05-19T09:26:42.028Z,102552.06
2023-05-19T09:29:15.041Z,102539.41
2023-05-19T09:31:51.862Z,102538.03
2023-05-19T09:34:21.588Z,102536.13
2023-05-19T09:36:53.491Z,102543.50
2023-05-19T09:39:24.099Z,102450.00
2023-05-19T09:41:54.567Z,102532.97
2023-05-19T09:44:24.334Z,102531.28
2023-05-19T09:46:54.636Z,102527.28
2023-05-19T09:49:24.894Z,102527.66
2023-05-19T09:51:57.069Z,102534.56
2023-05-19T09:54:27.596Z,102485.59
2023-05-19T09:57:02.250Z,102536.34
2023-05-19T09:59:33.517Z,102446.16
2023-05-19T10:02:03.455Z,102532.91
2023-05-19T10:04:33.104Z,102514.66
2023-05-19T10:07:06.051Z,102515.19
2023-05-19T10:09:35.333Z,102518.38
2023-05-19T10:12:05.184Z,102524.66
2023-05-19T10:14:34.060Z,102523.31
2023-05-19T10:17:03.034Z,102525.16
2023-05-19T10:19:32.034Z,102518.09
2023-05-19T10:22:01.084Z,102522.16
2023-05-19T10:24:31.345Z,102511.41
2023-05-19T10:27:04.736Z,102517.16
2023-05-19T10:29:37.321Z,102518.22
2023-05-19T10:32:08.059Z,102507.97
2023-05-19T10:35:22.122Z,102471.88
2023-05-19T10:37:58.893Z,102513.63
2023-05-19T10:40:31.387Z,102503.72
2023-05-19T10:43:15.179Z,102510.81
2023-05-19T10:45:49.161Z,102495.53
2023-05-19T10:48:18.546Z,102495.66
2023-05-19T10:50:48.012Z,102506.47
2023-05-19T10:53:18.537Z,102509.78
2023-05-19T10:55:56.749Z,102495.06
2023-05-19T10:58:39.360Z,102491.97
2023-05-19T11:01:14.355Z,102493.13
2023-05-19T11:03:47.234Z,102475.97
2023-05-19T11:06:22.536Z,102486.53
2023-05-19T11:08:55.045Z,102486.84
2023-05-19T11:11:26.394Z,102488.03
2023-05-19T11:13:56.549Z,102497.66
2023-05-19T11:16:29.987Z,102486.94
2023-05-19T11:19:01.688Z,102491.94
2023-05-19T11:21:44.212Z,102491.28
2023-05-19T11:24:36.996Z,102493.94
2023-05-19T11:27:31.172Z,102411.44
2023-05-19T11:30:02.049Z,102497.97
2023-05-19T11:32:33.720Z,102500.59
2023-05-19T11:35:06.616Z,102492.16
2023-05-19T11:37:36.159Z,102471.78
2023-05-19T11:40:07.041Z,102488.25
2023-05-19T11:42:38.058Z,102493.84
2023-05-19T11:45:08.360Z,102484.09
2023-05-19T11:47:50.958Z,102470.09
2023-05-19T11:50:26.680Z,102485.03
2023-05-19T11:52:56.378Z,102487.69
2023-05-19T11:55:26.050Z,102487.41
2023-05-19T11:58:05.536Z,102477.69
2023-05-19T12:00:39.233Z,102469.16
2023-05-19T12:03:09.281Z,102470.00
2023-05-19T12:05:42.940Z,102472.88
2023-05-19T12:08:12.904Z,102471.66
2023-05-19T12:10:42.436Z,102458.63
2023-05-19T12:13:13.875Z,102469.78
2023-05-19T12:15:45.500Z,102469.44
2023-05-19T12:18:14.381Z,102460.13
2023-05-19T12:20:43.539Z,102468.56
2023-05-19T12:23:13.242Z,102466.84
2023-05-19T12:25:42.266Z,102458.50
2023-05-19T12:28:12.514Z,102464.13
2023-05-19T12:30:41.606Z,102369.19
2023-05-19T12:33:12.013Z,102450.53
2023-05-19T12:35:41.077Z,102451.44
2023-05-19T12:38:09.972Z,102441.47
2023-05-19T12:40:39.740Z,102442.63
2023-05-19T12:43:09.788Z,102441.03
2023-05-19T12:45:42.681Z,102440.81
2023-05-19T12:48:15.989Z,102439.25
2023-05-19T12:50:45.913Z,102440.81
2023-05-19T12:53:15.838Z,102434.38
2023-05-19T14:47:28.899Z,102377.09
2023-05-19T14:49:59.624Z,102377.06
2023-05-19T14:52:28.538Z,102380.09
2023-05-19T14:54:57.495Z,102372.94
2023-05-19T14:57:26.354Z,102378.00
2023-05-19T14:59:55.230Z,102372.69
2023-05-19T15:02:24.181Z,102370.69
2023-05-19T15:04:53.004Z,102361.06
2023-05-19T15:07:24.639Z,102372.00
2023-05-19T15:09:53.699Z,102371.75
2023-05-19T15:12:22.622Z,102290.28
2023-05-19T15:14:51.648Z,102365.91
2023-05-19T15:17:20.639Z,102361.25
2023-05-19T15:19:49.761Z,102357.97
2023-05-19T15:22:21.494Z,102353.19
2023-05-19T15:24:51.948Z,102351.16
2023-05-19T15:27:20.866Z,102357.28
2023-05-19T15:29:49.628Z,102337.06
2023-05-19T15:32:18.472Z,102358.81
2023-05-19T15:34:47.257Z,102347.13
2023-05-19T15:37:16.573Z,102349.56
2023-05-19T15:39:45.333Z,102357.72
2023-05-19T15:42:15.508Z,102350.50
2023-05-19T15:44:46.027Z,102342.72
2023-05-19T15:47:14.954Z,102343.91
2023-05-19T15:49:43.698Z,102346.00
2023-05-19T15:52:12.790Z,102333.53
2023-05-19T15:54:41.632Z,102346.31
2023-05-19T15:57:10.528Z,102341.19
2023-05-19T15:59:40.701Z,102337.00
2023-05-19T16:02:10.030Z,102335.28
2023-05-19T16:04:38.929Z,102338.50
2023-05-19T16:07:07.723Z,102332.75
2023-05-19T16:09:36.594Z,102330.19
2023-05-19T16:12:05.700Z,102320.66
2023-05-19T16:14:36.694Z,102322.66
2023-05-19T16:17:11.488Z,102326.75
2023-05-19T16:19:40.473Z,102322.66
2023-05-19T16:22:09.249Z,102302.00
2023-05-19T16:24:37.975Z,102320.81
2023-05-19T16:27:06.844Z,102328.56
2023-05-19T16:29:35.633Z,102326.50
2023-05-19T16:32:04.731Z,102325.81
2023-05-19T16:34:35.080Z,102317.81
2023-05-19T16:37:03.905Z,102314.50
2023-05-19T16:39:32.731Z,102323.47
2023-05-19T16:42:03.593Z,102325.53
2023-05-19T16:44:32.428Z,102321.53
2023-05-19T16:47:01.192Z,102325.00
2023-05-19T16:49:29.919Z,102322.81
2023-05-19T16:52:00.041Z,102316.38
2023-05-19T16:54:30.055Z,102319.41
2023-05-19T16:56:58.915Z,102321.59
2023-05-19T16:59:28.383Z,102325.50
2023-05-19T17:01:58.312Z,102318.19
2023-05-19T17:04:30.870Z,102323.19
2023-05-19T17:07:01.297Z,102333.03
2023-05-19T17:09:30.012Z,102324.53
2023-05-19T17:12:00.850Z,102329.91
2023-05-19T17:14:30.769Z,102329.47
2023-05-19T17:17:02.370Z,102335.00
2023-05-19T17:19:33.322Z,101826.75
2023-05-19T17:22:04.006Z,101765.31
2023-05-19T17:24:33.933Z,102129.28
2023-05-19T17:27:05.410Z,101892.78
2023-05-19T17:29:38.993Z,101857.56
2023-05-19T17:32:08.588Z,101980.38
2023-05-19T17:34:46.153Z,101837.59
2023-05-19T17:37:21.206Z,102220.22
2023-05-19T17:39:57.600Z,101781.91
2023-05-19T17:43:29.931Z,102400.44
2023-05-19T17:46:26.174Z,102231.19
2023-05-19T17:51:26.537Z,102339.78
2023-05-19T17:52:11.584Z,102055.41
2023-05-19T17:54:43.793Z,102340.19
2023-05-19T17:57:15.432Z,102262.25
2023-05-19T17:59:50.137Z,102346.03
2023-05-19T18:02:20.398Z,101845.53
2023-05-19T18:04:57.045Z,102159.63
2023-05-19T18:11:16.787Z,102020.81
2023-05-19T18:14:17.121Z,102342.41
2023-05-19T18:17:08.752Z,102348.75
2023-05-19T18:19:38.169Z,102235.72
2023-05-19T18:22:07.282Z,102346.84
2023-05-19T18:24:39.706Z,102379.38
2023-05-19T18:27:10.048Z,102346.78
2023-05-19T18:29:39.610Z,101992.06
2023-05-19T18:32:09.458Z,102105.97
2023-05-19T18:34:38.552Z,102330.50
2023-05-19T18:37:09.273Z,102193.75
2023-05-19T18:39:38.663Z,102038.41
2023-05-19T18:42:09.790Z,101936.69
2023-05-19T18:45:33.611Z,102356.75
2023-05-19T18:57:35.476Z,102194.50
2023-05-19T18:57:52.272Z,101769.44
2023-05-19T20:06:29.300Z,102414.09
2023-05-19T20:08:58.900Z,101862.00
2023-05-19T20:11:34.906Z,102189.06
2023-05-19T20:17:32.914Z,102388.13
2023-05-19T20:20:17.166Z,102030.84
2023-05-19T20:27:38.704Z,102094.28
2023-05-19T20:30:08.935Z,102434.34
2023-05-19T20:32:38.011Z,102373.44
2023-05-19T20:35:08.669Z,102463.69
2023-05-19T20:37:37.501Z,102435.34
2023-05-19T20:40:12.629Z,102436.66
2023-05-19T20:42:45.243Z,102443.81
2023-05-19T20:45:14.074Z,102449.47
2023-05-19T20:47:43.420Z,102265.03
2023-05-19T20:50:12.413Z,102447.59
2023-05-19T20:52:42.372Z,102269.06
2023-05-19T20:55:11.551Z,102444.53
2023-05-19T20:57:43.820Z,102401.47
2023-05-19T21:00:16.217Z,102450.03
2023-05-19T21:02:45.366Z,102436.63
2023-05-19T21:05:16.556Z,102451.88
2023-05-19T21:07:46.040Z,102269.75
2023-05-19T21:10:18.066Z,102286.50
2023-05-19T21:12:47.126Z,102027.69
2023-05-19T21:15:17.965Z,102447.78
2023-05-19T21:17:47.526Z,102400.47
2023-05-19T21:20:18.779Z,102450.06
2023-05-19T21:22:47.909Z,102259.78
2023-05-19T21:25:17.539Z,102401.97
2023-05-19T21:27:50.356Z,102428.41
2023-05-19T21:30:21.022Z,102241.84
2023-05-19T21:32:49.893Z,102453.56
2023-05-19T21:35:19.261Z,102401.66
2023-05-19T21:37:48.818Z,102461.47
2023-05-19T21:40:17.657Z,102459.94
2023-05-19T21:42:47.118Z,102371.47
2023-05-19T21:45:16.256Z,102468.94
2023-05-19T21:47:47.100Z,102538.03
2023-05-19T21:50:17.490Z,102158.22
2023-05-19T21:52:46.628Z,102475.16
2023-05-19T21:55:15.773Z,102418.75
2023-05-19T21:57:44.705Z,102437.78
2023-05-19T22:00:14.997Z,102466.59
2023-05-19T22:02:44.044Z,102411.63
2023-05-19T22:05:14.522Z,102483.91
2023-05-19T22:07:43.612Z,102358.75
2023-05-19T22:10:13.477Z,102460.50
2023-05-19T22:12:42.590Z,102462.88
2023-05-19T22:15:14.619Z,102423.81
2023-05-19T22:17:43.833Z,102428.28
2023-05-19T22:20:14.761Z,102473.34
2023-05-19T22:22:43.856Z,102464.06
2023-05-19T22:25:15.871Z,102390.06
2023-05-19T22:27:44.695Z,102428.63
2023-05-19T22:30:13.541Z,102476.25
2023-05-19T22:32:42.189Z,102471.97
2023-05-19T22:35:12.489Z,102472.81
2023-05-19T22:37:42.732Z,102469.31
2023-05-19T22:40:12.359Z,102473.47
2023-05-19T22:42:41.389Z,102077.28
2023-05-19T22:45:12.809Z,102470.53
2023-05-19T22:47:42.316Z,102171.72
2023-05-19T22:50:13.711Z,102469.91
2023-05-19T22:52:43.954Z,102484.38
2023-05-19T22:55:13.250Z,102476.03
2023-05-19T22:57:42.073Z,102520.72
2023-05-19T23:00:14.128Z,102471.81
2023-05-19T23:02:43.063Z,102540.13
2023-05-19T23:05:12.341Z,102129.28
2023-05-19T23:07:41.282Z,102283.22
2023-05-19T23:10:12.813Z,102486.81
2023-05-19T23:12:41.634Z,102485.84
2023-05-19T23:15:12.190Z,102487.00
2023-05-19T23:17:41.273Z,102474.13
2023-05-19T23:20:14.034Z,102485.56
2023-05-19T23:22:43.152Z,102485.38
2023-05-19T23:25:13.661Z,102047.25
2023-05-19T23:27:42.758Z,102480.34
2023-05-19T23:30:12.271Z,102477.13
2023-05-19T23:32:41.288Z,102472.47
2023-05-19T23:35:11.758Z,102474.09
2023-05-19T23:37:41.206Z,102364.13
2023-05-19T23:40:10.702Z,102425.59
2023-05-19T23:42:41.176Z,102475.22
2023-05-19T23:45:10.778Z,102201.97
2023-05-19T23:47:39.598Z,102052.06
2023-05-19T23:50:09.814Z,102473.25
2023-05-19T23:52:38.675Z,102392.66
2023-05-19T23:55:12.810Z,102464.66
2023-05-19T23:57:43.064Z,102462.78
